Terminal Aerodrome Forecast
Issued by NWS Chicago, IL

Home | Current Version | Previous Version | Text Only | Print | Product List | Glossary On
Versions: 1 2 3 4 5 6 7 8 9 10 11 12 13 14 15 16 17 18 19 20 21 22 23 24 25 26 27 28
369
FTUS43 KLOT 200903 AAA
TAFRFD
TAF AMD
KRFD 200903Z 2009/2106 06013G18KT 6SM BR VCSH SCT007 BKN010 OVC050
     FM201300 06013KT 6SM BR VCSH SCT007 OVC012
     FM201700 06011KT P6SM SCT008 BKN018
     FM202200 07010KT P6SM FEW012 BKN035=

USA.gov is the U.S. government's official web portal to all federal, state and local government web resources and services.